sensor_id;sensor_type;location;lat;lon;timestamp;temperature;humidity
19483;DHT22;9882;51.166;6.992;2023-11-18T00:02:07;7.40;99.90
19483;DHT22;9882;51.166;6.992;2023-11-18T00:04:36;7.30;99.90
19483;DHT22;9882;51.166;6.992;2023-11-18T00:07:05;7.30;99.90
19483;DHT22;9882;51.166;6.992;2023-11-18T00:09:36;7.30;99.90
19483;DHT22;9882;51.166;6.992;2023-11-18T00:12:06;7.30;99.90
19483;DHT22;9882;51.166;6.992;2023-11-18T00:14:35;7.30;99.90
19483;DHT22;9882;51.166;6.992;2023-11-18T00:17:04;7.20;99.90
19483;DHT22;9882;51.166;6.992;2023-11-18T00:19:33;7.30;99.90
19483;DHT22;9882;51.166;6.992;2023-11-18T00:22:04;7.20;99.90
19483;DHT22;9882;51.166;6.992;2023-11-18T00:24:33;7.20;99.90
19483;DHT22;9882;51.166;6.992;2023-11-18T00:27:05;7.10;99.90
19483;DHT22;9882;51.166;6.992;2023-11-18T00:29:34;7.20;99.90
19483;DHT22;9882;51.166;6.992;2023-11-18T00:32:05;7.20;99.90
19483;DHT22;9882;51.166;6.992;2023-11-18T00:34:34;7.20;99.90
19483;DHT22;9882;51.166;6.992;2023-11-18T00:37:04;7.20;99.90
19483;DHT22;9882;51.166;6.992;2023-11-18T00:39:32;7.20;99.90
19483;DHT22;9882;51.166;6.992;2023-11-18T00:42:02;7.00;99.90
19483;DHT22;9882;51.166;6.992;2023-11-18T00:44:32;7.00;99.90
19483;DHT22;9882;51.166;6.992;2023-11-18T00:47:01;7.00;99.90
19483;DHT22;9882;51.166;6.992;2023-11-18T00:49:31;7.10;99.90
19483;DHT22;9882;51.166;6.992;2023-11-18T00:52:02;7.10;99.90
19483;DHT22;9882;51.166;6.992;2023-11-18T00:54:31;7.00;99.90
19483;DHT22;9882;51.166;6.992;2023-11-18T00:57:00;7.00;99.90
19483;DHT22;9882;51.166;6.992;2023-11-18T00:59:29;7.00;99.90
19483;DHT22;9882;51.166;6.992;2023-11-18T01:02:00;7.00;99.90
19483;DHT22;9882;51.166;6.992;2023-11-18T01:04:31;7.00;99.90
19483;DHT22;9882;51.166;6.992;2023-11-18T01:07:01;7.00;99.90
19483;DHT22;9882;51.166;6.992;2023-11-18T01:09:31;7.00;99.90
19483;DHT22;9882;51.166;6.992;2023-11-18T01:12:06;7.00;99.90
19483;DHT22;9882;51.166;6.992;2023-11-18T01:14:38;6.90;99.90
19483;DHT22;9882;51.166;6.992;2023-11-18T01:17:08;6.90;99.90
19483;DHT22;9882;51.166;6.992;2023-11-18T01:19:37;6.90;99.90
19483;DHT22;9882;51.166;6.992;2023-11-18T01:22:07;6.90;99.90
19483;DHT22;9882;51.166;6.992;2023-11-18T01:24:36;6.90;99.90
19483;DHT22;9882;51.166;6.992;2023-11-18T01:27:06;6.90;99.90
19483;DHT22;9882;51.166;6.992;2023-11-18T01:29:39;6.80;99.90
19483;DHT22;9882;51.166;6.992;2023-11-18T01:32:10;6.70;99.90
19483;DHT22;9882;51.166;6.992;2023-11-18T01:34:39;6.80;99.90
19483;DHT22;9882;51.166;6.992;2023-11-18T01:37:11;6.80;99.90
19483;DHT22;9882;51.166;6.992;2023-11-18T01:39:40;6.70;99.90
19483;DHT22;9882;51.166;6.992;2023-11-18T01:42:12;6.70;99.90
19483;DHT22;9882;51.166;6.992;2023-11-18T01:44:43;6.70;99.90
19483;DHT22;9882;51.166;6.992;2023-11-18T01:47:14;6.70;99.90
19483;DHT22;9882;51.166;6.992;2023-11-18T01:49:44;6.80;99.90
19483;DHT22;9882;51.166;6.992;2023-11-18T01:52:13;6.80;99.90
19483;DHT22;9882;51.166;6.992;2023-11-18T01:54:43;6.80;99.90
19483;DHT22;9882;51.166;6.992;2023-11-18T01:57:12;6.80;99.90
19483;DHT22;9882;51.166;6.992;2023-11-18T01:59:41;6.70;99.90
19483;DHT22;9882;51.166;6.992;2023-11-18T02:02:11;6.70;99.90
19483;DHT22;9882;51.166;6.992;2023-11-18T02:04:42;6.70;99.90
19483;DHT22;9882;51.166;6.992;2023-11-18T02:07:12;6.60;99.90
19483;DHT22;9882;51.166;6.992;2023-11-18T02:09:43;6.70;99.90
19483;DHT22;9882;51.166;6.992;2023-11-18T02:12:21;6.70;99.90
19483;DHT22;9882;51.166;6.992;2023-11-18T02:14:51;6.60;99.90
19483;DHT22;9882;51.166;6.992;2023-11-18T02:17:23;6.70;99.90
19483;DHT22;9882;51.166;6.992;2023-11-18T02:19:57;6.70;99.90
19483;DHT22;9882;51.166;6.992;2023-11-18T02:22:26;6.60;99.90
19483;DHT22;9882;51.166;6.992;2023-11-18T02:24:55;6.70;99.90
19483;DHT22;9882;51.166;6.992;2023-11-18T02:27:27;6.60;99.90
19483;DHT22;9882;51.166;6.992;2023-11-18T02:29:58;6.60;99.90
19483;DHT22;9882;51.166;6.992;2023-11-18T02:32:32;6.60;99.90
19483;DHT22;9882;51.166;6.992;2023-11-18T02:35:08;6.60;99.90
19483;DHT22;9882;51.166;6.992;2023-11-18T02:37:39;6.60;99.90
19483;DHT22;9882;51.166;6.992;2023-11-18T02:40:13;6.60;99.90
19483;DHT22;9882;51.166;6.992;2023-11-18T02:42:46;6.60;99.90
19483;DHT22;9882;51.166;6.992;2023-11-18T02:45:17;6.60;99.90
19483;DHT22;9882;51.166;6.992;2023-11-18T02:47:46;6.60;99.90
19483;DHT22;9882;51.166;6.992;2023-11-18T02:50:15;6.60;99.90
19483;DHT22;9882;51.166;6.992;2023-11-18T02:52:47;6.60;99.90
19483;DHT22;9882;51.166;6.992;2023-11-18T02:55:16;6.60;99.90
19483;DHT22;9882;51.166;6.992;2023-11-18T02:57:46;6.70;99.90
19483;DHT22;9882;51.166;6.992;2023-11-18T03:00:16;6.60;99.90
19483;DHT22;9882;51.166;6.992;2023-11-18T03:02:49;6.50;99.90
19483;DHT22;9882;51.166;6.992;2023-11-18T03:05:19;6.60;99.90
19483;DHT22;9882;51.166;6.992;2023-11-18T03:07:48;6.60;99.90
19483;DHT22;9882;51.166;6.992;2023-11-18T03:10:20;6.60;99.90
19483;DHT22;9882;51.166;6.992;2023-11-18T03:12:52;6.50;99.90
19483;DHT22;9882;51.166;6.992;2023-11-18T03:15:22;6.50;99.90
19483;DHT22;9882;51.166;6.992;2023-11-18T03:17:53;6.50;99.90
19483;DHT22;9882;51.166;6.992;2023-11-18T03:20:24;6.50;99.90
19483;DHT22;9882;51.166;6.992;2023-11-18T03:22:54;6.40;99.90
19483;DHT22;9882;51.166;6.992;2023-11-18T03:25:22;6.40;99.90
19483;DHT22;9882;51.166;6.992;2023-11-18T03:27:53;6.50;99.90
19483;DHT22;9882;51.166;6.992;2023-11-18T03:30:22;6.50;99.90
19483;DHT22;9882;51.166;6.992;2023-11-18T03:32:51;6.60;99.90
19483;DHT22;9882;51.166;6.992;2023-11-18T03:35:20;6.50;99.90
19483;DHT22;9882;51.166;6.992;2023-11-18T03:37:50;6.40;99.90
19483;DHT22;9882;51.166;6.992;2023-11-18T03:40:19;6.50;99.90
19483;DHT22;9882;51.166;6.992;2023-11-18T03:42:48;6.50;99.90
19483;DHT22;9882;51.166;6.992;2023-11-18T03:45:19;6.30;99.90
19483;DHT22;9882;51.166;6.992;2023-11-18T03:47:48;6.30;99.90
19483;DHT22;9882;51.166;6.992;2023-11-18T03:50:18;6.30;99.90
19483;DHT22;9882;51.166;6.992;2023-11-18T03:52:47;6.30;99.90
19483;DHT22;9882;51.166;6.992;2023-11-18T03:55:15;6.30;99.90
19483;DHT22;9882;51.166;6.992;2023-11-18T03:57:45;6.30;99.90
19483;DHT22;9882;51.166;6.992;2023-11-18T04:00:16;6.30;99.90
19483;DHT22;9882;51.166;6.992;2023-11-18T04:02:47;6.30;99.90
19483;DHT22;9882;51.166;6.992;2023-11-18T04:05:15;6.30;99.90
19483;DHT22;9882;51.166;6.992;2023-11-18T04:07:44;6.40;99.90
19483;DHT22;9882;51.166;6.992;2023-11-18T04:10:14;6.40;99.90
19483;DHT22;9882;51.166;6.992;2023-11-18T04:12:45;6.40;99.90
19483;DHT22;9882;51.166;6.992;2023-11-18T04:15:15;6.40;99.90
19483;DHT22;9882;51.166;6.992;2023-11-18T04:17:44;6.30;99.90
19483;DHT22;9882;51.166;6.992;2023-11-18T04:20:15;6.30;99.90
19483;DHT22;9882;51.166;6.992;2023-11-18T04:22:44;6.30;99.90
19483;DHT22;9882;51.166;6.992;2023-11-18T04:25:13;6.30;99.90
19483;DHT22;9882;51.166;6.992;2023-11-18T04:27:42;6.30;99.90
19483;DHT22;9882;51.166;6.992;2023-11-18T04:30:12;6.30;99.90
19483;DHT22;9882;51.166;6.992;2023-11-18T04:32:41;6.30;99.90
19483;DHT22;9882;51.166;6.992;2023-11-18T04:35:11;6.30;99.90
19483;DHT22;9882;51.166;6.992;2023-11-18T04:37:41;6.20;99.90
19483;DHT22;9882;51.166;6.992;2023-11-18T04:40:13;6.30;99.90
19483;DHT22;9882;51.166;6.992;2023-11-18T04:42:43;6.20;99.90
19483;DHT22;9882;51.166;6.992;2023-11-18T04:45:12;6.20;99.90
19483;DHT22;9882;51.166;6.992;2023-11-18T04:47:42;6.20;99.90
19483;DHT22;9882;51.166;6.992;2023-11-18T04:50:12;6.20;99.90
19483;DHT22;9882;51.166;6.992;2023-11-18T04:52:43;6.20;99.90
19483;DHT22;9882;51.166;6.992;2023-11-18T04:55:12;6.20;99.90
19483;DHT22;9882;51.166;6.992;2023-11-18T04:57:42;6.30;99.90
19483;DHT22;9882;51.166;6.992;2023-11-18T05:00:12;6.20;99.90
19483;DHT22;9882;51.166;6.992;2023-11-18T05:02:44;6.20;99.90
19483;DHT22;9882;51.166;6.992;2023-11-18T05:05:16;6.30;99.90
19483;DHT22;9882;51.166;6.992;2023-11-18T05:07:47;6.30;99.90
19483;DHT22;9882;51.166;6.992;2023-11-18T05:10:16;6.40;99.90
19483;DHT22;9882;51.166;6.992;2023-11-18T05:12:47;6.30;99.90
19483;DHT22;9882;51.166;6.992;2023-11-18T05:15:23;6.30;99.90
19483;DHT22;9882;51.166;6.992;2023-11-18T05:17:53;6.40;99.90
19483;DHT22;9882;51.166;6.992;2023-11-18T05:20:22;6.40;99.90
19483;DHT22;9882;51.166;6.992;2023-11-18T05:22:53;6.40;99.90
19483;DHT22;9882;51.166;6.992;2023-11-18T05:25:21;6.40;99.90
19483;DHT22;9882;51.166;6.992;2023-11-18T05:27:51;6.40;99.90
19483;DHT22;9882;51.166;6.992;2023-11-18T05:30:19;6.40;99.90
19483;DHT22;9882;51.166;6.992;2023-11-18T05:32:50;6.50;99.90
19483;DHT22;9882;51.166;6.992;2023-11-18T05:35:19;6.30;99.90
19483;DHT22;9882;51.166;6.992;2023-11-18T05:37:56;6.40;99.90
19483;DHT22;9882;51.166;6.992;2023-11-18T05:40:26;6.40;99.90
19483;DHT22;9882;51.166;6.992;2023-11-18T05:42:56;6.30;99.90
19483;DHT22;9882;51.166;6.992;2023-11-18T05:45:26;6.20;99.90
19483;DHT22;9882;51.166;6.992;2023-11-18T05:48:11;6.20;99.90
19483;DHT22;9882;51.166;6.992;2023-11-18T05:50:42;6.30;99.90
19483;DHT22;9882;51.166;6.992;2023-11-18T05:53:13;6.40;99.90
19483;DHT22;9882;51.166;6.992;2023-11-18T05:55:41;6.30;99.90
19483;DHT22;9882;51.166;6.992;2023-11-18T05:58:10;6.40;99.90
19483;DHT22;9882;51.166;6.992;2023-11-18T06:00:39;6.30;99.90
19483;DHT22;9882;51.166;6.992;2023-11-18T06:03:08;6.30;99.90
19483;DHT22;9882;51.166;6.992;2023-11-18T06:05:39;6.40;99.90
19483;DHT22;9882;51.166;6.992;2023-11-18T06:08:07;6.20;99.90
19483;DHT22;9882;51.166;6.992;2023-11-18T06:10:38;6.20;99.90
19483;DHT22;9882;51.166;6.992;2023-11-18T06:13:06;6.30;99.90
19483;DHT22;9882;51.166;6.992;2023-11-18T06:15:38;6.30;99.90
19483;DHT22;9882;51.166;6.992;2023-11-18T06:18:07;6.30;99.90
19483;DHT22;9882;51.166;6.992;2023-11-18T06:20:36;6.30;99.90
19483;DHT22;9882;51.166;6.992;2023-11-18T06:23:06;6.30;99.90
19483;DHT22;9882;51.166;6.992;2023-11-18T06:25:34;6.40;99.90
19483;DHT22;9882;51.166;6.992;2023-11-18T06:28:05;6.30;99.90
19483;DHT22;9882;51.166;6.992;2023-11-18T06:30:35;6.30;99.90
19483;DHT22;9882;51.166;6.992;2023-11-18T06:33:04;6.40;99.90
19483;DHT22;9882;51.166;6.992;2023-11-18T06:35:33;6.30;99.90
19483;DHT22;9882;51.166;6.992;2023-11-18T06:38:02;6.40;99.90
19483;DHT22;9882;51.166;6.992;2023-11-18T06:40:31;6.40;99.90
19483;DHT22;9882;51.166;6.992;2023-11-18T06:43:02;6.40;99.90
19483;DHT22;9882;51.166;6.992;2023-11-18T06:45:43;6.30;99.90
19483;DHT22;9882;51.166;6.992;2023-11-18T06:48:12;6.20;99.90
19483;DHT22;9882;51.166;6.992;2023-11-18T06:50:42;6.30;99.90
19483;DHT22;9882;51.166;6.992;2023-11-18T06:53:12;6.30;99.90
19483;DHT22;9882;51.166;6.992;2023-11-18T06:55:42;6.40;99.90
19483;DHT22;9882;51.166;6.992;2023-11-18T06:58:11;6.40;99.90
19483;DHT22;9882;51.166;6.992;2023-11-18T07:00:41;6.40;99.90
19483;DHT22;9882;51.166;6.992;2023-11-18T07:03:11;6.40;99.90
19483;DHT22;9882;51.166;6.992;2023-11-18T07:05:40;6.50;99.90
19483;DHT22;9882;51.166;6.992;2023-11-18T07:08:09;6.40;99.90
19483;DHT22;9882;51.166;6.992;2023-11-18T07:10:40;6.40;99.90
19483;DHT22;9882;51.166;6.992;2023-11-18T07:13:09;6.50;99.90
19483;DHT22;9882;51.166;6.992;2023-11-18T07:15:38;6.50;99.90
19483;DHT22;9882;51.166;6.992;2023-11-18T07:18:07;6.40;99.90
19483;DHT22;9882;51.166;6.992;2023-11-18T07:20:37;6.40;99.90
19483;DHT22;9882;51.166;6.992;2023-11-18T07:23:06;6.30;99.90
19483;DHT22;9882;51.166;6.992;2023-11-18T07:25:36;6.30;99.90
19483;DHT22;9882;51.166;6.992;2023-11-18T07:28:05;6.40;99.90
19483;DHT22;9882;51.166;6.992;2023-11-18T07:30:36;6.30;99.90
19483;DHT22;9882;51.166;6.992;2023-11-18T07:33:05;6.40;99.90
19483;DHT22;9882;51.166;6.992;2023-11-18T07:35:37;6.30;99.90
19483;DHT22;9882;51.166;6.992;2023-11-18T07:38:06;6.30;99.90
19483;DHT22;9882;51.166;6.992;2023-11-18T07:40:36;6.40;99.90
19483;DHT22;9882;51.166;6.992;2023-11-18T07:43:09;6.40;99.90
19483;DHT22;9882;51.166;6.992;2023-11-18T07:45:38;6.40;99.90
19483;DHT22;9882;51.166;6.992;2023-11-18T07:48:10;6.50;99.90
19483;DHT22;9882;51.166;6.992;2023-11-18T07:50:40;6.40;99.90
19483;DHT22;9882;51.166;6.992;2023-11-18T07:53:09;6.50;99.90
19483;DHT22;9882;51.166;6.992;2023-11-18T07:55:38;6.50;99.90
19483;DHT22;9882;51.166;6.992;2023-11-18T07:58:08;6.50;99.90
19483;DHT22;9882;51.166;6.992;2023-11-18T08:00:38;6.40;99.90
19483;DHT22;9882;51.166;6.992;2023-11-18T08:03:07;6.40;99.90
19483;DHT22;9882;51.166;6.992;2023-11-18T08:05:41;6.40;99.90
19483;DHT22;9882;51.166;6.992;2023-11-18T08:08:11;6.40;99.90
19483;DHT22;9882;51.166;6.992;2023-11-18T08:10:40;6.40;99.90
19483;DHT22;9882;51.166;6.992;2023-11-18T08:13:11;6.50;99.90
19483;DHT22;9882;51.166;6.992;2023-11-18T08:15:41;6.50;99.90
19483;DHT22;9882;51.166;6.992;2023-11-18T08:18:13;6.50;99.90
19483;DHT22;9882;51.166;6.992;2023-11-18T08:20:43;6.50;99.90
19483;DHT22;9882;51.166;6.992;2023-11-18T08:23:14;6.50;99.90
19483;DHT22;9882;51.166;6.992;2023-11-18T08:25:43;6.50;99.90
19483;DHT22;9882;51.166;6.992;2023-11-18T08:28:13;6.50;99.90
19483;DHT22;9882;51.166;6.992;2023-11-18T08:30:42;6.50;99.90
19483;DHT22;9882;51.166;6.992;2023-11-18T08:33:12;6.50;99.90
19483;DHT22;9882;51.166;6.992;2023-11-18T08:35:41;6.50;99.90
19483;DHT22;9882;51.166;6.992;2023-11-18T08:38:12;6.50;99.90
19483;DHT22;9882;51.166;6.992;2023-11-18T08:40:41;6.50;99.90
19483;DHT22;9882;51.166;6.992;2023-11-18T08:43:13;6.60;99.90
19483;DHT22;9882;51.166;6.992;2023-11-18T08:45:44;6.60;99.90
19483;DHT22;9882;51.166;6.992;2023-11-18T08:48:15;6.60;99.90
19483;DHT22;9882;51.166;6.992;2023-11-18T08:50:46;6.60;99.90
19483;DHT22;9882;51.166;6.992;2023-11-18T08:53:16;6.60;99.90
19483;DHT22;9882;51.166;6.992;2023-11-18T08:55:46;6.50;99.90
19483;DHT22;9882;51.166;6.992;2023-11-18T08:58:18;6.50;99.90
19483;DHT22;9882;51.166;6.992;2023-11-18T09:00:51;6.50;99.90
19483;DHT22;9882;51.166;6.992;2023-11-18T09:03:25;6.50;99.90
19483;DHT22;9882;51.166;6.992;2023-11-18T09:05:57;6.60;99.90
19483;DHT22;9882;51.166;6.992;2023-11-18T09:08:29;6.60;99.90
19483;DHT22;9882;51.166;6.992;2023-11-18T09:11:00;6.60;99.90
19483;DHT22;9882;51.166;6.992;2023-11-18T09:13:29;6.60;99.90
19483;DHT22;9882;51.166;6.992;2023-11-18T09:15:59;6.60;99.90
19483;DHT22;9882;51.166;6.992;2023-11-18T09:18:29;6.60;99.90
19483;DHT22;9882;51.166;6.992;2023-11-18T09:21:00;6.80;99.90
19483;DHT22;9882;51.166;6.992;2023-11-18T09:23:33;6.90;99.90
19483;DHT22;9882;51.166;6.992;2023-11-18T09:26:03;7.10;99.90
19483;DHT22;9882;51.166;6.992;2023-11-18T09:28:35;7.20;99.90
19483;DHT22;9882;51.166;6.992;2023-11-18T09:31:05;7.30;99.90
19483;DHT22;9882;51.166;6.992;2023-11-18T09:33:34;7.50;99.90
19483;DHT22;9882;51.166;6.992;2023-11-18T09:36:04;7.60;99.90
19483;DHT22;9882;51.166;6.992;2023-11-18T09:38:37;7.60;99.90
19483;DHT22;9882;51.166;6.992;2023-11-18T09:41:08;7.60;99.90
19483;DHT22;9882;51.166;6.992;2023-11-18T09:43:40;7.80;99.90
19483;DHT22;9882;51.166;6.992;2023-11-18T09:46:14;7.70;99.90
19483;DHT22;9882;51.166;6.992;2023-11-18T09:48:45;7.80;99.90
19483;DHT22;9882;51.166;6.992;2023-11-18T09:51:20;7.70;99.90
19483;DHT22;9882;51.166;6.992;2023-11-18T09:53:52;7.80;99.90
19483;DHT22;9882;51.166;6.992;2023-11-18T09:56:30;7.80;99.90
19483;DHT22;9882;51.166;6.992;2023-11-18T09:59:11;7.80;99.90
19483;DHT22;9882;51.166;6.992;2023-11-18T10:01:46;7.60;99.90
19483;DHT22;9882;51.166;6.992;2023-11-18T10:04:21;7.70;99.90
19483;DHT22;9882;51.166;6.992;2023-11-18T10:06:55;7.70;99.90
19483;DHT22;9882;51.166;6.992;2023-11-18T10:09:27;7.70;99.90
19483;DHT22;9882;51.166;6.992;2023-11-18T10:11:56;7.70;99.90
19483;DHT22;9882;51.166;6.992;2023-11-18T10:14:33;7.70;99.90
19483;DHT22;9882;51.166;6.992;2023-11-18T10:17:06;7.70;99.90
19483;DHT22;9882;51.166;6.992;2023-11-18T10:19:54;7.80;99.90
19483;DHT22;9882;51.166;6.992;2023-11-18T10:22:25;7.90;99.90
19483;DHT22;9882;51.166;6.992;2023-11-18T10:24:56;7.90;99.90
19483;DHT22;9882;51.166;6.992;2023-11-18T10:27:26;7.90;99.90
19483;DHT22;9882;51.166;6.992;2023-11-18T10:29:56;8.00;99.90
19483;DHT22;9882;51.166;6.992;2023-11-18T10:32:25;7.90;99.90
19483;DHT22;9882;51.166;6.992;2023-11-18T10:34:56;7.90;99.90
19483;DHT22;9882;51.166;6.992;2023-11-18T10:37:25;8.00;99.90
19483;DHT22;9882;51.166;6.992;2023-11-18T10:40:04;8.00;99.90
19483;DHT22;9882;51.166;6.992;2023-11-18T10:42:33;7.90;99.90
19483;DHT22;9882;51.166;6.992;2023-11-18T10:45:02;7.80;99.90
19483;DHT22;9882;51.166;6.992;2023-11-18T10:47:32;7.70;99.90
19483;DHT22;9882;51.166;6.992;2023-11-18T10:50:03;7.60;99.90
19483;DHT22;9882;51.166;6.992;2023-11-18T10:52:34;7.70;99.90
19483;DHT22;9882;51.166;6.992;2023-11-18T10:55:10;7.70;99.90
19483;DHT22;9882;51.166;6.992;2023-11-18T10:57:40;7.50;99.90
19483;DHT22;9882;51.166;6.992;2023-11-18T11:00:12;7.50;99.90
19483;DHT22;9882;51.166;6.992;2023-11-18T11:02:42;7.50;99.90
19483;DHT22;9882;51.166;6.992;2023-11-18T11:05:11;7.50;99.90
19483;DHT22;9882;51.166;6.992;2023-11-18T11:07:45;7.50;99.90
19483;DHT22;9882;51.166;6.992;2023-11-18T11:10:21;7.40;99.90
19483;DHT22;9882;51.166;6.992;2023-11-18T11:13:00;7.50;99.90
19483;DHT22;9882;51.166;6.992;2023-11-18T11:15:31;7.50;99.90
19483;DHT22;9882;51.166;6.992;2023-11-18T11:18:08;7.50;99.90
19483;DHT22;9882;51.166;6.992;2023-11-18T11:20:47;7.50;99.90
19483;DHT22;9882;51.166;6.992;2023-11-18T11:23:21;7.50;99.90
19483;DHT22;9882;51.166;6.992;2023-11-18T11:26:02;7.60;99.90
19483;DHT22;9882;51.166;6.992;2023-11-18T11:28:42;7.50;99.90
19483;DHT22;9882;51.166;6.992;2023-11-18T11:31:17;7.60;99.90
19483;DHT22;9882;51.166;6.992;2023-11-18T11:33:57;7.60;99.90
19483;DHT22;9882;51.166;6.992;2023-11-18T11:36:35;7.50;99.90
19483;DHT22;9882;51.166;6.992;2023-11-18T11:39:08;7.60;99.90
19483;DHT22;9882;51.166;6.992;2023-11-18T11:41:46;7.60;99.90
19483;DHT22;9882;51.166;6.992;2023-11-18T11:44:19;7.60;99.90
19483;DHT22;9882;51.166;6.992;2023-11-18T11:46:57;7.60;99.90
19483;DHT22;9882;51.166;6.992;2023-11-18T11:49:34;7.60;99.90
19483;DHT22;9882;51.166;6.992;2023-11-18T11:52:13;7.60;99.90
19483;DHT22;9882;51.166;6.992;2023-11-18T11:54:48;7.60;99.90
19483;DHT22;9882;51.166;6.992;2023-11-18T11:57:26;7.70;99.90
19483;DHT22;9882;51.166;6.992;2023-11-18T11:59:58;7.70;99.90
19483;DHT22;9882;51.166;6.992;2023-11-18T12:02:48;7.70;99.90
19483;DHT22;9882;51.166;6.992;2023-11-18T12:05:24;7.60;99.90
19483;DHT22;9882;51.166;6.992;2023-11-18T12:07:55;7.70;99.90
19483;DHT22;9882;51.166;6.992;2023-11-18T12:10:26;7.70;99.90
19483;DHT22;9882;51.166;6.992;2023-11-18T12:13:09;7.70;99.90
19483;DHT22;9882;51.166;6.992;2023-11-18T12:15:50;7.80;99.90
19483;DHT22;9882;51.166;6.992;2023-11-18T12:18:25;7.70;99.90
19483;DHT22;9882;51.166;6.992;2023-11-18T12:20:54;7.70;99.90
19483;DHT22;9882;51.166;6.992;2023-11-18T12:23:24;7.70;99.90
19483;DHT22;9882;51.166;6.992;2023-11-18T12:25:54;7.70;99.90
19483;DHT22;9882;51.166;6.992;2023-11-18T12:28:30;7.70;99.90
19483;DHT22;9882;51.166;6.992;2023-11-18T12:31:03;8.00;99.90
19483;DHT22;9882;51.166;6.992;2023-11-18T12:34:02;8.20;99.90
19483;DHT22;9882;51.166;6.992;2023-11-18T12:37:04;8.60;99.90
19483;DHT22;9882;51.166;6.992;2023-11-18T12:43:09;8.70;99.90
19483;DHT22;9882;51.166;6.992;2023-11-18T12:49:07;8.90;99.90
19483;DHT22;9882;51.166;6.992;2023-11-18T12:51:42;8.80;99.90
19483;DHT22;9882;51.166;6.992;2023-11-18T12:54:12;9.00;99.90
19483;DHT22;9882;51.166;6.992;2023-11-18T12:56:41;9.10;99.90
19483;DHT22;9882;51.166;6.992;2023-11-18T12:59:11;9.00;99.90
19483;DHT22;9882;51.166;6.992;2023-11-18T13:01:40;9.20;99.90
19483;DHT22;9882;51.166;6.992;2023-11-18T13:04:11;9.30;99.90
19483;DHT22;9882;51.166;6.992;2023-11-18T13:06:41;9.20;99.90
19483;DHT22;9882;51.166;6.992;2023-11-18T13:09:11;9.10;99.90
19483;DHT22;9882;51.166;6.992;2023-11-18T13:11:53;9.30;99.90
19483;DHT22;9882;51.166;6.992;2023-11-18T13:14:26;9.30;99.90
19483;DHT22;9882;51.166;6.992;2023-11-18T13:16:57;9.20;99.90
19483;DHT22;9882;51.166;6.992;2023-11-18T13:19:29;9.10;99.90
19483;DHT22;9882;51.166;6.992;2023-11-18T13:22:00;9.10;99.90
19483;DHT22;9882;51.166;6.992;2023-11-18T13:24:31;9.20;99.90
19483;DHT22;9882;51.166;6.992;2023-11-18T13:27:00;9.20;99.90
19483;DHT22;9882;51.166;6.992;2023-11-18T13:29:32;9.20;99.90
19483;DHT22;9882;51.166;6.992;2023-11-18T13:32:01;9.10;99.90
19483;DHT22;9882;51.166;6.992;2023-11-18T13:34:34;9.30;99.90
19483;DHT22;9882;51.166;6.992;2023-11-18T13:37:06;8.90;99.90
19483;DHT22;9882;51.166;6.992;2023-11-18T13:39:35;9.10;99.90
19483;DHT22;9882;51.166;6.992;2023-11-18T13:42:19;9.20;99.90
19483;DHT22;9882;51.166;6.992;2023-11-18T13:44:48;9.10;99.90
19483;DHT22;9882;51.166;6.992;2023-11-18T13:47:20;9.10;99.90
19483;DHT22;9882;51.166;6.992;2023-11-18T13:49:54;9.20;99.90
19483;DHT22;9882;51.166;6.992;2023-11-18T13:52:26;9.30;99.90
19483;DHT22;9882;51.166;6.992;2023-11-18T13:54:59;9.20;99.90
19483;DHT22;9882;51.166;6.992;2023-11-18T13:57:28;9.30;99.90
19483;DHT22;9882;51.166;6.992;2023-11-18T13:59:58;9.10;99.90
19483;DHT22;9882;51.166;6.992;2023-11-18T14:02:27;9.10;99.90
19483;DHT22;9882;51.166;6.992;2023-11-18T14:04:59;9.00;99.90
19483;DHT22;9882;51.166;6.992;2023-11-18T14:07:28;9.20;99.90
19483;DHT22;9882;51.166;6.992;2023-11-18T14:09:58;9.00;99.90
19483;DHT22;9882;51.166;6.992;2023-11-18T14:12:28;9.20;99.90
19483;DHT22;9882;51.166;6.992;2023-11-18T14:15:00;9.00;99.90
19483;DHT22;9882;51.166;6.992;2023-11-18T14:17:35;9.10;99.90
19483;DHT22;9882;51.166;6.992;2023-11-18T14:20:08;9.00;99.90
19483;DHT22;9882;51.166;6.992;2023-11-18T14:22:41;9.00;99.90
19483;DHT22;9882;51.166;6.992;2023-11-18T14:25:12;9.20;99.90
19483;DHT22;9882;51.166;6.992;2023-11-18T14:27:42;9.00;99.90
19483;DHT22;9882;51.166;6.992;2023-11-18T14:30:12;9.10;99.90
19483;DHT22;9882;51.166;6.992;2023-11-18T14:32:41;8.90;99.90
19483;DHT22;9882;51.166;6.992;2023-11-18T14:35:12;9.00;99.90
19483;DHT22;9882;51.166;6.992;2023-11-18T14:37:44;9.10;99.90
19483;DHT22;9882;51.166;6.992;2023-11-18T14:40:14;9.00;99.90
19483;DHT22;9882;51.166;6.992;2023-11-18T14:42:45;9.00;99.90
19483;DHT22;9882;51.166;6.992;2023-11-18T14:45:16;9.10;99.90
19483;DHT22;9882;51.166;6.992;2023-11-18T14:47:45;9.10;99.90
19483;DHT22;9882;51.166;6.992;2023-11-18T14:50:20;8.90;99.90
19483;DHT22;9882;51.166;6.992;2023-11-18T14:52:51;8.90;99.90
19483;DHT22;9882;51.166;6.992;2023-11-18T14:55:26;8.90;99.90
19483;DHT22;9882;51.166;6.992;2023-11-18T14:57:55;8.90;99.90
19483;DHT22;9882;51.166;6.992;2023-11-18T15:00:24;8.90;99.90
19483;DHT22;9882;51.166;6.992;2023-11-18T15:02:54;8.80;99.90
19483;DHT22;9882;51.166;6.992;2023-11-18T15:05:27;8.90;99.90
19483;DHT22;9882;51.166;6.992;2023-11-18T15:07:58;8.90;99.90
19483;DHT22;9882;51.166;6.992;2023-11-18T15:10:28;8.90;99.90
19483;DHT22;9882;51.166;6.992;2023-11-18T15:13:00;8.90;99.90
19483;DHT22;9882;51.166;6.992;2023-11-18T15:15:31;9.00;99.90
19483;DHT22;9882;51.166;6.992;2023-11-18T15:18:02;8.90;99.90
19483;DHT22;9882;51.166;6.992;2023-11-18T15:20:36;8.90;99.90
19483;DHT22;9882;51.166;6.992;2023-11-18T15:23:06;8.90;99.90
19483;DHT22;9882;51.166;6.992;2023-11-18T15:25:35;9.00;99.90
19483;DHT22;9882;51.166;6.992;2023-11-18T15:28:04;8.90;99.90
19483;DHT22;9882;51.166;6.992;2023-11-18T15:30:37;9.00;99.90
19483;DHT22;9882;51.166;6.992;2023-11-18T15:33:07;8.90;99.90
19483;DHT22;9882;51.166;6.992;2023-11-18T15:35:38;8.80;99.90
19483;DHT22;9882;51.166;6.992;2023-11-18T15:38:08;8.90;99.90
19483;DHT22;9882;51.166;6.992;2023-11-18T15:40:37;8.90;99.90
19483;DHT22;9882;51.166;6.992;2023-11-18T15:43:06;8.90;99.90
19483;DHT22;9882;51.166;6.992;2023-11-18T15:45:35;8.90;99.90
19483;DHT22;9882;51.166;6.992;2023-11-18T15:48:07;8.80;99.90
19483;DHT22;9882;51.166;6.992;2023-11-18T15:50:41;8.80;99.90
19483;DHT22;9882;51.166;6.992;2023-11-18T15:53:10;8.70;99.90
19483;DHT22;9882;51.166;6.992;2023-11-18T15:55:41;8.80;99.90
19483;DHT22;9882;51.166;6.992;2023-11-18T15:58:12;8.70;99.90
19483;DHT22;9882;51.166;6.992;2023-11-18T16:00:41;8.90;99.90
19483;DHT22;9882;51.166;6.992;2023-11-18T16:03:10;8.80;99.90
19483;DHT22;9882;51.166;6.992;2023-11-18T16:05:42;8.90;99.90
19483;DHT22;9882;51.166;6.992;2023-11-18T16:08:12;8.80;99.90
19483;DHT22;9882;51.166;6.992;2023-11-18T16:11:06;8.90;99.90
19483;DHT22;9882;51.166;6.992;2023-11-18T16:13:37;8.70;99.90
19483;DHT22;9882;51.166;6.992;2023-11-18T16:16:07;8.90;99.90
19483;DHT22;9882;51.166;6.992;2023-11-18T16:18:36;8.70;99.90
19483;DHT22;9882;51.166;6.992;2023-11-18T16:21:08;8.90;99.90
19483;DHT22;9882;51.166;6.992;2023-11-18T16:23:37;8.90;99.90
19483;DHT22;9882;51.166;6.992;2023-11-18T16:26:06;8.90;99.90
19483;DHT22;9882;51.166;6.992;2023-11-18T16:28:38;8.80;99.90
19483;DHT22;9882;51.166;6.992;2023-11-18T16:31:06;8.90;99.90
19483;DHT22;9882;51.166;6.992;2023-11-18T16:33:36;8.90;99.90
19483;DHT22;9882;51.166;6.992;2023-11-18T16:36:08;8.90;99.90